createdAt,value
2022-10-19T00:02:01.832Z,77.70
2022-10-19T00:04:32.526Z,77.64
2022-10-19T00:07:03.224Z,77.86
2022-10-19T00:09:33.797Z,77.88
2022-10-19T00:12:04.547Z,78.07
2022-10-19T00:14:35.243Z,78.41
2022-10-19T00:17:05.892Z,78.31
2022-10-19T00:19:36.576Z,78.33
2022-10-19T00:22:10.334Z,78.09
2022-10-19T00:24:44.017Z,78.22
2022-10-19T00:27:14.703Z,78.23
2022-10-19T00:29:45.405Z,78.33
2022-10-19T00:32:16.046Z,78.38
2022-10-19T00:34:46.822Z,78.45
2022-10-19T00:37:17.538Z,78.47
2022-10-19T00:39:48.275Z,78.33
2022-10-19T00:42:18.986Z,78.60
2022-10-19T00:45:06.152Z,78.80
2022-10-19T00:47:37.234Z,78.68
2022-10-19T00:50:09.952Z,78.93
2022-10-19T00:52:40.584Z,78.41
2022-10-19T00:55:12.814Z,78.15
2022-10-19T00:57:43.513Z,77.75
2022-10-19T01:00:16.236Z,77.49
2022-10-19T01:02:47.183Z,77.60
2022-10-19T01:05:19.644Z,77.93
2022-10-19T01:07:48.741Z,77.68
2022-10-19T01:10:23.605Z,77.41
2022-10-19T01:13:15.827Z,76.78
2022-10-19T01:18:34.209Z,76.11
2022-10-19T01:21:23.129Z,75.93
2022-10-19T01:24:29.650Z,75.97
2022-10-19T01:27:30.486Z,76.14
2022-10-19T01:30:08.652Z,76.25
2022-10-19T01:32:51.942Z,76.31
2022-10-19T01:35:32.038Z,76.57
2022-10-19T01:38:12.022Z,76.72
2022-10-19T01:40:50.021Z,76.74
2022-10-19T01:43:28.417Z,76.72
2022-10-19T01:46:00.865Z,76.55
2022-10-19T01:48:34.779Z,76.72
2022-10-19T01:51:10.706Z,77.28
2022-10-19T01:53:46.395Z,77.07
2022-10-19T01:56:18.470Z,76.55
2022-10-19T01:58:51.331Z,76.19
2022-10-19T02:01:25.363Z,76.13
2022-10-19T02:03:57.615Z,76.22
2022-10-19T02:06:28.673Z,76.52
2022-10-19T02:09:00.100Z,77.17
2022-10-19T02:11:32.483Z,77.22
2022-10-19T02:14:08.047Z,77.09
2022-10-19T02:16:44.297Z,76.55
2022-10-19T02:19:16.865Z,76.06
2022-10-19T02:21:47.585Z,76.20
2022-10-19T02:24:18.373Z,76.20
2022-10-19T02:26:49.416Z,76.21
2022-10-19T02:29:20.441Z,75.26
2022-10-19T02:31:51.435Z,74.73
2022-10-19T02:34:22.401Z,74.87
2022-10-19T02:36:53.335Z,75.07
2022-10-19T02:39:24.765Z,75.46
2022-10-19T02:42:02.205Z,75.51
2022-10-19T02:44:37.452Z,75.39
2022-10-19T02:47:12.964Z,75.21
2022-10-19T02:49:44.792Z,75.34
2022-10-19T02:52:15.984Z,75.41
2022-10-19T02:54:47.186Z,76.10
2022-10-19T02:57:23.051Z,76.39
2022-10-19T02:59:54.394Z,76.07
2022-10-19T03:02:25.045Z,75.83
2022-10-19T03:04:55.721Z,75.99
2022-10-19T03:07:26.861Z,75.79
2022-10-19T03:09:57.629Z,75.30
2022-10-19T03:12:28.345Z,75.44
2022-10-19T03:14:58.972Z,75.42
2022-10-19T03:17:29.834Z,75.50
2022-10-19T03:20:00.555Z,75.39
2022-10-19T03:22:31.152Z,75.01
2022-10-19T03:25:01.888Z,74.43
2022-10-19T03:27:32.812Z,74.22
2022-10-19T03:30:04.373Z,74.34
2022-10-19T03:32:34.978Z,74.90
2022-10-19T03:35:06.545Z,74.57
2022-10-19T03:37:37.501Z,74.71
2022-10-19T03:40:10.406Z,74.26
2022-10-19T03:42:41.078Z,73.94
2022-10-19T03:45:12.719Z,74.01
2022-10-19T03:47:43.426Z,73.92
2022-10-19T03:50:16.915Z,74.04
2022-10-19T03:52:49.339Z,74.74
2022-10-19T03:55:20.520Z,75.09
2022-10-19T03:57:51.280Z,75.38
2022-10-19T04:00:22.011Z,75.37
2022-10-19T04:02:52.748Z,75.35
2022-10-19T04:05:23.374Z,74.97
2022-10-19T04:07:54.083Z,74.85
2022-10-19T04:10:24.800Z,74.73
2022-10-19T04:12:55.415Z,74.45
2022-10-19T04:15:26.228Z,74.07
2022-10-19T04:17:56.850Z,74.47
2022-10-19T04:20:27.471Z,74.76
2022-10-19T04:22:58.079Z,74.50
2022-10-19T04:25:28.736Z,74.56
2022-10-19T04:27:59.416Z,74.47
2022-10-19T04:30:30.181Z,74.91
2022-10-19T04:33:00.797Z,74.30
2022-10-19T04:35:31.417Z,74.14
2022-10-19T04:38:02.695Z,74.36
2022-10-19T04:40:35.027Z,74.39
2022-10-19T04:43:06.224Z,74.23
2022-10-19T04:45:38.552Z,73.94
2022-10-19T04:48:09.764Z,74.11
2022-10-19T04:50:40.521Z,73.89
2022-10-19T04:53:11.218Z,74.30
2022-10-19T04:55:44.492Z,74.28
2022-10-19T04:58:15.196Z,74.28
2022-10-19T05:00:45.962Z,74.09
2022-10-19T05:03:16.820Z,73.86
2022-10-19T05:05:47.428Z,73.79
2022-10-19T05:08:18.527Z,73.68
2022-10-19T05:10:49.216Z,73.75
2022-10-19T05:13:19.800Z,74.04
2022-10-19T05:15:59.587Z,74.16
2022-10-19T05:18:30.246Z,74.16
2022-10-19T05:21:11.452Z,74.96
2022-10-19T05:23:43.067Z,76.18
2022-10-19T05:26:17.302Z,76.39
2022-10-19T05:28:50.949Z,75.43
2022-10-19T05:31:22.339Z,75.36
2022-10-19T05:33:53.015Z,74.02
2022-10-19T05:36:26.829Z,73.20
2022-10-19T05:38:59.377Z,73.15
2022-10-19T05:41:28.527Z,73.33
2022-10-19T05:44:02.640Z,73.54
2022-10-19T05:46:34.307Z,73.80
2022-10-19T05:49:04.993Z,74.03
2022-10-19T05:51:35.797Z,74.12
2022-10-19T05:54:07.889Z,74.41
2022-10-19T05:56:39.067Z,74.54
2022-10-19T05:59:14.891Z,74.70
2022-10-19T06:01:45.845Z,75.12
2022-10-19T06:06:52.763Z,75.29
2022-10-19T06:09:23.398Z,75.41
2022-10-19T06:11:54.132Z,75.40
2022-10-19T06:14:24.801Z,75.34
2022-10-19T06:16:55.515Z,75.33
2022-10-19T06:19:26.189Z,75.50
2022-10-19T06:21:56.813Z,75.51
2022-10-19T06:24:27.569Z,75.82
2022-10-19T06:26:58.695Z,75.78
2022-10-19T06:29:29.432Z,75.54
2022-10-19T06:32:00.468Z,75.55
2022-10-19T06:34:31.210Z,75.56
2022-10-19T06:37:01.951Z,75.62
2022-10-19T06:39:32.638Z,75.45
2022-10-19T06:42:03.255Z,75.61
2022-10-19T06:44:34.003Z,75.53
2022-10-19T06:47:04.703Z,75.56
2022-10-19T06:49:35.962Z,75.51
2022-10-19T06:52:07.638Z,75.62
2022-10-19T06:54:38.249Z,75.72
2022-10-19T06:57:09.190Z,75.72
2022-10-19T06:59:40.152Z,75.82
2022-10-19T07:02:12.614Z,75.83
2022-10-19T07:04:41.667Z,76.14
2022-10-19T07:07:12.338Z,75.87
2022-10-19T07:09:43.065Z,75.98
2022-10-19T07:12:13.761Z,76.03
2022-10-19T07:14:44.505Z,76.06
2022-10-19T07:17:15.248Z,76.11
2022-10-19T07:19:45.980Z,76.19
2022-10-19T07:22:21.189Z,76.12
2022-10-19T07:24:54.694Z,76.54
2022-10-19T07:27:25.361Z,76.26
2022-10-19T07:29:56.113Z,76.29
2022-10-19T07:32:26.696Z,76.38
2022-10-19T07:34:57.299Z,76.21
2022-10-19T07:37:27.960Z,76.41
2022-10-19T07:39:58.625Z,76.10
2022-10-19T07:42:31.369Z,75.32
2022-10-19T07:45:02.130Z,74.89
2022-10-19T07:47:33.103Z,74.32
2022-10-19T07:50:04.482Z,74.31
2022-10-19T07:52:36.918Z,74.18
2022-10-19T07:55:09.159Z,73.98
2022-10-19T07:57:41.579Z,73.71
2022-10-19T08:00:16.353Z,73.47
2022-10-19T08:03:00.116Z,73.22
2022-10-19T08:05:38.104Z,73.35
2022-10-19T08:08:09.216Z,73.64
2022-10-19T08:10:39.928Z,73.47
2022-10-19T08:13:10.533Z,73.43
2022-10-19T08:15:41.118Z,73.40
2022-10-19T08:18:12.000Z,73.23
2022-10-19T08:20:45.056Z,73.17
2022-10-19T08:23:15.696Z,73.24
2022-10-19T08:25:46.342Z,73.07
2022-10-19T08:28:17.289Z,73.19
2022-10-19T08:30:48.000Z,72.44
2022-10-19T08:33:18.736Z,72.30
2022-10-19T08:35:49.361Z,72.53
2022-10-19T08:38:19.998Z,72.25
2022-10-19T08:40:51.309Z,72.24
2022-10-19T08:43:28.349Z,72.56
2022-10-19T08:46:20.915Z,72.28
2022-10-19T08:48:52.792Z,72.28
2022-10-19T08:51:23.612Z,72.38
2022-10-19T08:53:58.520Z,72.60
2022-10-19T08:56:51.485Z,72.18
2022-10-19T08:59:34.484Z,72.02
2022-10-19T09:02:12.140Z,71.86
2022-10-19T09:04:47.978Z,71.60
2022-10-19T09:07:28.284Z,71.65
2022-10-19T09:10:03.539Z,71.05
2022-10-19T09:12:42.093Z,70.47
2022-10-19T09:15:16.621Z,70.43
2022-10-19T09:17:47.834Z,71.01
2022-10-19T09:20:21.840Z,70.52
2022-10-19T09:23:03.225Z,69.95
2022-10-19T09:25:36.864Z,69.72
2022-10-19T09:28:25.626Z,68.55
2022-10-19T09:31:01.381Z,68.85
2022-10-19T09:33:37.434Z,69.17
2022-10-19T09:36:22.274Z,69.36
2022-10-19T09:38:54.811Z,69.08
2022-10-19T09:41:26.605Z,68.16
2022-10-19T09:43:58.441Z,68.66
2022-10-19T09:46:43.266Z,68.59
2022-10-19T09:49:14.074Z,68.62
2022-10-19T09:51:52.290Z,68.69
2022-10-19T09:54:45.900Z,68.12
2022-10-19T09:57:22.890Z,67.92
2022-10-19T09:59:56.352Z,67.74
2022-10-19T10:02:33.795Z,67.52
2022-10-19T10:05:17.610Z,66.33
2022-10-19T10:07:49.191Z,65.24
2022-10-19T10:10:28.232Z,65.25
2022-10-19T10:13:02.925Z,64.87
2022-10-19T10:15:45.014Z,64.33
2022-10-19T10:18:19.761Z,64.75
2022-10-19T10:21:13.333Z,64.18
2022-10-19T10:23:44.214Z,64.08
2022-10-19T10:26:22.394Z,63.84
2022-10-19T10:28:55.629Z,64.03
2022-10-19T10:31:32.059Z,64.16
2022-10-19T10:34:16.274Z,64.31
2022-10-19T10:36:57.100Z,63.86
2022-10-19T10:39:31.247Z,63.82
2022-10-19T10:42:07.932Z,63.89
2022-10-19T10:44:39.312Z,63.89
2022-10-19T10:47:17.702Z,64.14
2022-10-19T10:49:58.207Z,63.62
2022-10-19T10:52:32.176Z,61.32
2022-10-19T10:55:15.420Z,61.88
2022-10-19T10:57:49.086Z,62.56
2022-10-19T11:00:24.096Z,63.06
2022-10-19T11:03:02.091Z,62.17
2022-10-19T11:05:37.587Z,62.36
2022-10-19T11:08:19.921Z,62.18
2022-10-19T11:10:56.637Z,62.49
2022-10-19T11:13:33.458Z,61.82
2022-10-19T11:16:12.644Z,61.63
2022-10-19T11:18:47.406Z,61.32
2022-10-19T11:21:26.025Z,60.66
2022-10-19T11:24:08.916Z,59.65
2022-10-19T11:26:52.940Z,59.06
2022-10-19T11:29:34.585Z,59.79
2022-10-19T11:32:12.490Z,59.95
2022-10-19T11:34:58.691Z,60.22
2022-10-19T11:37:45.478Z,59.92
2022-10-19T11:40:29.226Z,60.25
2022-10-19T11:43:07.959Z,60.62
2022-10-19T11:45:48.582Z,60.48
2022-10-19T11:48:52.936Z,60.49
2022-10-19T11:51:34.358Z,60.80
2022-10-19T11:54:19.544Z,60.03
2022-10-19T11:57:04.257Z,60.45
2022-10-19T12:00:08.168Z,60.45
2022-10-19T12:03:04.927Z,59.68
2022-10-19T12:05:47.528Z,58.57
2022-10-19T12:08:35.186Z,56.77
2022-10-19T12:11:18.832Z,56.04
2022-10-19T12:13:53.920Z,56.43
2022-10-19T12:16:35.514Z,56.83
2022-10-19T12:19:07.961Z,58.36
2022-10-19T12:21:44.120Z,57.19
2022-10-19T12:24:19.165Z,56.12
2022-10-19T12:26:51.755Z,56.90
2022-10-19T12:29:26.530Z,56.63
2022-10-19T12:31:58.830Z,57.00
2022-10-19T12:34:38.236Z,57.23
2022-10-19T12:37:14.512Z,58.31
2022-10-19T12:39:53.927Z,58.44
2022-10-19T12:42:30.668Z,58.56
2022-10-19T12:45:16.919Z,58.66
2022-10-19T12:48:24.533Z,59.05
2022-10-19T12:51:22.316Z,58.36
2022-10-19T12:54:08.200Z,59.78
2022-10-19T12:56:50.942Z,59.54
2022-10-19T12:59:27.073Z,59.16
2022-10-19T13:01:58.890Z,59.31
2022-10-19T13:04:32.219Z,59.93
2022-10-19T13:07:06.000Z,59.85
2022-10-19T13:09:38.743Z,60.39
2022-10-19T13:12:41.297Z,59.54
2022-10-19T13:15:26.583Z,59.74
2022-10-19T13:17:57.257Z,60.53
2022-10-19T13:20:54.840Z,61.06
2022-10-19T13:23:42.868Z,59.66
2022-10-19T13:26:36.262Z,60.23
2022-10-19T13:29:27.384Z,60.52
2022-10-19T13:32:18.103Z,60.10
2022-10-19T13:34:49.010Z,60.02
2022-10-19T13:37:21.277Z,60.70
2022-10-19T13:39:52.141Z,60.99
2022-10-19T13:42:29.933Z,60.82
2022-10-19T13:45:00.607Z,61.15
2022-10-19T13:47:41.050Z,60.07
2022-10-19T13:50:24.549Z,59.81
2022-10-19T13:53:24.080Z,60.18
2022-10-19T13:56:21.297Z,60.54
2022-10-19T13:59:16.669Z,59.91
2022-10-19T14:01:59.247Z,60.43
2022-10-19T14:04:46.131Z,60.58
2022-10-19T14:07:21.204Z,60.16
2022-10-19T14:10:04.150Z,60.62
2022-10-19T14:12:39.421Z,59.92
2022-10-19T14:15:24.258Z,59.45
2022-10-19T14:17:55.884Z,60.12
2022-10-19T14:20:32.677Z,59.73
2022-10-19T14:23:21.206Z,60.39
2022-10-19T14:25:57.130Z,60.74
2022-10-19T14:28:29.273Z,60.98
2022-10-19T14:31:03.504Z,60.52
2022-10-19T14:33:38.932Z,60.30
2022-10-19T14:36:17.178Z,60.51
2022-10-19T14:38:50.400Z,60.75
2022-10-19T14:41:35.972Z,60.46
2022-10-19T14:44:34.040Z,60.16
2022-10-19T14:47:07.749Z,60.37
2022-10-19T14:49:38.392Z,60.78
2022-10-19T14:52:10.476Z,61.02
2022-10-19T14:54:46.294Z,60.92
2022-10-19T14:57:23.630Z,60.87
2022-10-19T14:59:58.437Z,61.22
2022-10-19T15:02:33.274Z,60.70
2022-10-19T15:05:06.638Z,61.33
2022-10-19T15:07:40.700Z,61.60
2022-10-19T15:10:21.896Z,60.75
2022-10-19T15:12:58.089Z,60.90
2022-10-19T15:15:31.465Z,61.21
2022-10-19T15:18:13.177Z,61.69
2022-10-19T15:20:55.009Z,61.60
2022-10-19T15:23:41.767Z,62.09
2022-10-19T15:26:20.178Z,62.32
2022-10-19T15:28:51.507Z,62.75
2022-10-19T15:31:26.248Z,62.51
2022-10-19T15:33:58.934Z,62.69
2022-10-19T15:36:30.910Z,62.42
2022-10-19T15:42:18.420Z,61.97
2022-10-19T15:44:49.115Z,62.20
2022-10-19T15:47:25.418Z,61.96
2022-10-19T15:49:59.792Z,62.77
2022-10-19T15:52:31.560Z,62.53
2022-10-19T15:55:02.904Z,62.45
2022-10-19T15:57:35.883Z,62.49
2022-10-19T16:00:14.718Z,62.74
2022-10-19T16:02:45.808Z,62.23
2022-10-19T16:05:16.875Z,62.39
2022-10-19T16:07:47.522Z,62.32
2022-10-19T16:10:20.608Z,62.05
2022-10-19T16:12:51.263Z,62.15
2022-10-19T16:15:24.290Z,62.67
2022-10-19T16:17:56.797Z,63.23
2022-10-19T16:20:26.807Z,63.17
2022-10-19T16:22:58.248Z,62.51
2022-10-19T16:25:28.878Z,62.28
2022-10-19T16:27:59.682Z,62.71
2022-10-19T16:30:30.368Z,63.20
2022-10-19T16:33:01.083Z,63.04
2022-10-19T16:35:31.791Z,62.96
2022-10-19T16:38:02.439Z,63.10
2022-10-19T16:40:33.168Z,63.38
2022-10-19T16:43:03.893Z,64.14
2022-10-19T16:45:35.489Z,64.26
2022-10-19T16:48:06.945Z,63.81
2022-10-19T16:50:37.688Z,63.95
2022-10-19T16:53:10.307Z,63.64
2022-10-19T16:55:41.975Z,64.12
2022-10-19T16:58:12.689Z,63.94
2022-10-19T17:00:43.301Z,63.91
2022-10-19T17:03:13.905Z,64.10
2022-10-19T17:05:44.570Z,64.35
2022-10-19T17:08:15.250Z,64.47
2022-10-19T17:10:47.081Z,64.71
2022-10-19T17:13:18.168Z,64.59
2022-10-19T17:15:48.889Z,64.59
2022-10-19T17:18:19.572Z,64.72
2022-10-19T17:20:50.349Z,64.80
2022-10-19T17:23:21.619Z,64.95
2022-10-19T17:25:52.268Z,65.04
2022-10-19T17:28:25.454Z,65.05
2022-10-19T17:30:58.903Z,65.17
2022-10-19T17:33:29.524Z,65.13
2022-10-19T17:36:05.722Z,65.02
2022-10-19T17:38:37.373Z,65.12
2022-10-19T17:41:10.547Z,65.34
2022-10-19T17:43:44.860Z,65.43
2022-10-19T17:46:18.488Z,65.59
2022-10-19T17:48:49.207Z,65.75
2022-10-19T17:51:23.645Z,65.85
2022-10-19T17:53:55.693Z,65.90
2022-10-19T17:56:27.401Z,65.89
2022-10-19T17:58:58.769Z,66.00
2022-10-19T18:01:29.758Z,66.33
2022-10-19T18:04:00.482Z,66.46
2022-10-19T18:06:33.222Z,66.68
2022-10-19T18:09:05.600Z,66.89
2022-10-19T18:11:38.653Z,67.14
2022-10-19T18:14:11.077Z,67.24
2022-10-19T18:16:44.743Z,67.45
2022-10-19T18:19:16.533Z,67.66
2022-10-19T18:21:49.202Z,67.85
2022-10-19T18:24:21.512Z,68.02
2022-10-19T18:26:52.870Z,68.35
2022-10-19T18:29:26.468Z,68.47
2022-10-19T18:31:57.388Z,68.71
2022-10-19T18:34:29.264Z,68.56
2022-10-19T18:37:00.209Z,68.61
2022-10-19T18:39:31.077Z,68.41
2022-10-19T18:42:01.837Z,68.55
2022-10-19T18:44:33.714Z,68.72
2022-10-19T18:47:04.673Z,68.63
2022-10-19T18:49:35.467Z,68.72
2022-10-19T18:52:06.265Z,68.98
2022-10-19T18:54:37.000Z,68.87
2022-10-19T18:57:07.741Z,68.94
2022-10-19T18:59:38.439Z,69.01
2022-10-19T19:02:13.807Z,69.15
2022-10-19T19:04:53.250Z,69.25
2022-10-19T19:07:23.953Z,69.41
2022-10-19T19:09:54.630Z,69.19
2022-10-19T19:12:25.477Z,68.99
2022-10-19T19:14:56.198Z,68.81
2022-10-19T19:17:26.976Z,69.02
2022-10-19T19:19:57.665Z,68.61
2022-10-19T19:22:28.287Z,68.93
2022-10-19T19:24:58.983Z,69.08
2022-10-19T19:27:31.797Z,69.57
2022-10-19T19:30:04.750Z,69.70
2022-10-19T19:32:33.967Z,69.93
2022-10-19T19:35:04.958Z,69.58
2022-10-19T19:37:37.768Z,69.74
2022-10-19T19:40:10.669Z,69.65
2022-10-19T19:42:39.663Z,69.62
2022-10-19T19:45:11.990Z,69.98
2022-10-19T19:47:42.661Z,69.97
2022-10-19T19:50:13.359Z,70.25
2022-10-19T19:52:43.953Z,70.34
2022-10-19T19:55:15.003Z,70.29
2022-10-19T19:57:54.902Z,70.26
2022-10-19T20:00:26.270Z,70.35
2022-10-19T20:02:58.360Z,70.22
2022-10-19T20:05:29.498Z,70.28
2022-10-19T20:08:00.345Z,70.17
2022-10-19T20:10:31.083Z,70.45
2022-10-19T20:13:01.809Z,70.31
2022-10-19T20:15:32.625Z,70.36
2022-10-19T20:18:03.459Z,70.52
2022-10-19T20:20:34.134Z,70.32
2022-10-19T20:23:04.837Z,70.40
2022-10-19T20:25:38.728Z,70.48
2022-10-19T20:28:09.318Z,70.35
2022-10-19T20:30:39.933Z,70.02
2022-10-19T20:33:10.545Z,70.28
2022-10-19T20:35:41.172Z,70.25
2022-10-19T20:38:11.842Z,70.21
2022-10-19T20:40:42.452Z,70.34
2022-10-19T20:43:14.745Z,70.31
2022-10-19T20:45:45.481Z,70.35
2022-10-19T20:48:16.458Z,70.59
2022-10-19T20:50:47.083Z,70.56
2022-10-19T20:53:17.674Z,70.76
2022-10-19T20:55:48.571Z,70.70
2022-10-19T20:58:19.167Z,70.61
2022-10-19T21:00:49.809Z,70.70
2022-10-19T21:03:21.959Z,71.00
2022-10-19T21:05:52.600Z,70.98
2022-10-19T21:08:23.319Z,71.28
2022-10-19T21:10:53.996Z,71.33
2022-10-19T21:13:24.643Z,71.40
2022-10-19T21:15:55.292Z,71.50
2022-10-19T21:18:25.957Z,71.40
2022-10-19T21:20:56.728Z,71.07
2022-10-19T21:23:28.415Z,70.90
2022-10-19T21:25:59.000Z,70.67
2022-10-19T21:28:29.639Z,70.86
2022-10-19T21:31:05.105Z,71.39
2022-10-19T21:33:36.071Z,71.47
2022-10-19T21:36:08.551Z,71.86
2022-10-19T21:38:39.658Z,71.89
2022-10-19T21:41:12.691Z,71.84
2022-10-19T21:43:43.872Z,71.46
2022-10-19T21:46:16.792Z,71.86
2022-10-19T21:48:47.927Z,71.97
2022-10-19T21:51:24.782Z,72.03
2022-10-19T21:53:55.975Z,72.45
2022-10-19T21:56:27.275Z,72.84
2022-10-19T21:58:58.144Z,72.82
2022-10-19T22:01:37.252Z,72.80
2022-10-19T22:04:14.029Z,72.84
2022-10-19T22:06:45.712Z,72.88
2022-10-19T22:09:21.403Z,72.77
2022-10-19T22:11:51.987Z,72.30
2022-10-19T22:14:22.659Z,72.39
2022-10-19T22:16:53.274Z,72.27
2022-10-19T22:19:26.252Z,72.51
2022-10-19T22:21:56.848Z,71.77
2022-10-19T22:24:27.413Z,71.56
2022-10-19T22:26:58.254Z,71.71
2022-10-19T22:29:29.163Z,71.53
2022-10-19T22:31:59.860Z,71.49
2022-10-19T22:34:32.119Z,71.51
2022-10-19T22:37:02.730Z,71.46
2022-10-19T22:39:34.213Z,71.33
2022-10-19T22:42:05.061Z,71.31
2022-10-19T22:44:35.603Z,71.38
2022-10-19T22:47:06.391Z,71.61
2022-10-19T22:49:37.044Z,71.65
2022-10-19T22:52:08.042Z,71.72
2022-10-19T22:54:38.838Z,71.74
2022-10-19T22:57:09.567Z,71.46
2022-10-19T22:59:40.536Z,71.38
2022-10-19T23:02:11.244Z,71.83
2022-10-19T23:04:41.792Z,72.15
2022-10-19T23:07:12.622Z,75.47
2022-10-19T23:09:43.414Z,75.38
2022-10-19T23:12:14.068Z,75.08
2022-10-19T23:14:44.630Z,76.10
2022-10-19T23:17:15.223Z,76.46
2022-10-19T23:19:46.241Z,76.69
2022-10-19T23:22:16.892Z,75.73
2022-10-19T23:24:47.545Z,73.88
2022-10-19T23:27:18.560Z,73.24
2022-10-19T23:29:49.194Z,74.44
2022-10-19T23:32:19.804Z,74.84
2022-10-19T23:34:50.485Z,74.23
2022-10-19T23:37:21.178Z,74.14
2022-10-19T23:39:51.959Z,72.91
2022-10-19T23:42:22.708Z,72.37
2022-10-19T23:44:53.316Z,71.88
2022-10-19T23:47:23.992Z,71.28
2022-10-19T23:49:54.610Z,70.60
2022-10-19T23:52:25.304Z,69.15
2022-10-19T23:54:55.966Z,67.48
2022-10-19T23:57:26.612Z,67.92
2022-10-19T23:59:57.211Z,68.94
